メインページ
METAR-TAF:

METAR-TAF

空港 :

クアラルンプール, マレーシア

クアラルンプール国際空港

緯度: 02-44N, 経度: 101-42E, 海抜: 21m

現時点の気象観測

当レポートは15分前の12:00(UTC)に作成
の風 5kt、北/北東から東/南東の間で変化する
気温 29°C
湿度 74%
気圧 1009 hPa
視程10km以上
高度1700ftの雲はほとんどない, 積乱雲.
高度14000ftの雲は散在している
高度28000ftの千切れ雲あり

METAR: WMKK 241200Z 08005KT 020V120 9999 FEW017CB SCT140 BKN280 29/24 Q1009 NOSIG

時間: 20:15 (12:15 UTC)

予報

当レポートは1時間15分前の11:00(UTC)に作成
予報は24日の 12時(UTC)から 25日の 18時(UTC)まで有効
東/北東の風 12kt
視程10km以上
高度1700ftの雲はほとんどない, 積乱雲.
確率 30% :
24日の 13時(UTC)から 24日の 17時(UTC)まで一時的に
視程: 4000m
高度1500ftの雲はほとんどない, 積乱雲.
高度1800ftの雲は散在している
激しい雷雨, 雨
24日の 19時(UTC)から 24日の 21時(UTC)まで徐々に
視程: 3000m
高度800ftの雲はほとんどない
煙霧
24日の 22時(UTC)から 25日の 00時(UTC)まで徐々に
視程: 8000m

TAF: WMKK 241100Z 2412/2518 06012KT 9999 FEW017CB PROB30 TEMPO 2413/2417 4000 TSRA FEW015CB SCT018 BECMG 2419/2421 3000 HZ FEW008 BECMG 2422/2500 8000

4,000以上の空港の気象観測と天気予報(METAR報とTAF報)

利用可能な観測所は地図上に黄色い丸と赤い丸で示す。

丸の上にカーソルを重ねると観測所名を参照できる。

次にクリックすると気象観測と天気予報を参照できる。

マップの切り替え:黒色「×」印の緑ボタンをクリックして拡大、「-」印の緑ボタンをクリックして縮小、緑色の三角印をクリックして隣りの地図に切り替え


METAR-TAF: